sensor_id;sensor_type;location;lat;lon;timestamp;temperature;humidity
37378;DHT22;23248;48.120;14.854;2022-12-18T00:02:21;-6.20;99.90
37378;DHT22;23248;48.120;14.854;2022-12-18T00:04:47;-6.10;99.90
37378;DHT22;23248;48.120;14.854;2022-12-18T00:07:12;-6.20;99.90
37378;DHT22;23248;48.120;14.854;2022-12-18T00:09:38;-6.20;99.90
37378;DHT22;23248;48.120;14.854;2022-12-18T00:12:06;-6.20;99.90
37378;DHT22;23248;48.120;14.854;2022-12-18T00:14:31;-6.10;99.90
37378;DHT22;23248;48.120;14.854;2022-12-18T00:16:57;-6.10;99.90
37378;DHT22;23248;48.120;14.854;2022-12-18T00:19:25;-6.20;99.90
37378;DHT22;23248;48.120;14.854;2022-12-18T00:21:51;-6.20;99.90
37378;DHT22;23248;48.120;14.854;2022-12-18T00:24:17;-6.20;99.90
37378;DHT22;23248;48.120;14.854;2022-12-18T00:26:42;-6.10;99.90
37378;DHT22;23248;48.120;14.854;2022-12-18T00:29:11;-6.10;99.90
37378;DHT22;23248;48.120;14.854;2022-12-18T00:31:39;-6.10;99.90
37378;DHT22;23248;48.120;14.854;2022-12-18T00:34:05;-6.10;99.90
37378;DHT22;23248;48.120;14.854;2022-12-18T00:36:32;-6.00;99.90
37378;DHT22;23248;48.120;14.854;2022-12-18T00:38:59;-6.00;99.90
37378;DHT22;23248;48.120;14.854;2022-12-18T00:41:25;-5.90;99.90
37378;DHT22;23248;48.120;14.854;2022-12-18T00:44:10;-5.80;99.90
37378;DHT22;23248;48.120;14.854;2022-12-18T00:46:37;-5.70;99.90
37378;DHT22;23248;48.120;14.854;2022-12-18T00:49:03;-5.60;99.90
37378;DHT22;23248;48.120;14.854;2022-12-18T00:51:28;-5.50;99.90
37378;DHT22;23248;48.120;14.854;2022-12-18T00:53:54;-5.50;99.90
37378;DHT22;23248;48.120;14.854;2022-12-18T00:56:20;-5.30;99.90
37378;DHT22;23248;48.120;14.854;2022-12-18T00:58:45;-5.30;99.90
37378;DHT22;23248;48.120;14.854;2022-12-18T01:01:11;-5.10;99.90
37378;DHT22;23248;48.120;14.854;2022-12-18T01:03:36;-5.00;99.90
37378;DHT22;23248;48.120;14.854;2022-12-18T01:06:06;-4.90;99.90
37378;DHT22;23248;48.120;14.854;2022-12-18T01:08:32;-4.90;99.90
37378;DHT22;23248;48.120;14.854;2022-12-18T01:10:57;-4.90;99.90
37378;DHT22;23248;48.120;14.854;2022-12-18T01:13:23;-4.90;99.90
37378;DHT22;23248;48.120;14.854;2022-12-18T01:15:49;-4.80;99.90
37378;DHT22;23248;48.120;14.854;2022-12-18T01:18:15;-4.70;99.90
37378;DHT22;23248;48.120;14.854;2022-12-18T01:20:40;-4.70;99.90
37378;DHT22;23248;48.120;14.854;2022-12-18T01:23:06;-4.70;99.90
37378;DHT22;23248;48.120;14.854;2022-12-18T01:25:31;-4.70;99.90
37378;DHT22;23248;48.120;14.854;2022-12-18T01:27:57;-4.70;99.90
37378;DHT22;23248;48.120;14.854;2022-12-18T01:30:22;-4.70;99.90
37378;DHT22;23248;48.120;14.854;2022-12-18T01:32:48;-4.60;99.90
37378;DHT22;23248;48.120;14.854;2022-12-18T01:35:14;-4.60;99.90
37378;DHT22;23248;48.120;14.854;2022-12-18T01:37:39;-4.60;99.90
37378;DHT22;23248;48.120;14.854;2022-12-18T01:40:05;-4.60;99.90
37378;DHT22;23248;48.120;14.854;2022-12-18T01:42:31;-4.50;99.90
37378;DHT22;23248;48.120;14.854;2022-12-18T01:44:58;-4.50;99.90
37378;DHT22;23248;48.120;14.854;2022-12-18T01:49:49;-4.30;99.90
37378;DHT22;23248;48.120;14.854;2022-12-18T01:52:15;-4.30;99.90
37378;DHT22;23248;48.120;14.854;2022-12-18T01:54:42;-4.30;99.90
37378;DHT22;23248;48.120;14.854;2022-12-18T01:57:08;-4.40;99.90
37378;DHT22;23248;48.120;14.854;2022-12-18T01:59:34;-4.50;99.90
37378;DHT22;23248;48.120;14.854;2022-12-18T02:02:00;-4.60;99.90
37378;DHT22;23248;48.120;14.854;2022-12-18T02:04:27;-4.70;99.90
37378;DHT22;23248;48.120;14.854;2022-12-18T02:06:55;-4.70;99.90
37378;DHT22;23248;48.120;14.854;2022-12-18T02:09:26;-4.70;99.90
37378;DHT22;23248;48.120;14.854;2022-12-18T02:11:55;-4.70;99.90
37378;DHT22;23248;48.120;14.854;2022-12-18T02:17:18;-4.60;99.90
37378;DHT22;23248;48.120;14.854;2022-12-18T02:25:19;-4.60;99.90
37378;DHT22;23248;48.120;14.854;2022-12-18T02:27:49;-4.60;99.90
37378;DHT22;23248;48.120;14.854;2022-12-18T02:30:16;-4.50;99.90
37378;DHT22;23248;48.120;14.854;2022-12-18T02:32:44;-4.50;99.90
37378;DHT22;23248;48.120;14.854;2022-12-18T02:35:22;-4.40;99.90
37378;DHT22;23248;48.120;14.854;2022-12-18T02:37:49;-4.40;99.90
37378;DHT22;23248;48.120;14.854;2022-12-18T02:40:15;-4.30;99.90
37378;DHT22;23248;48.120;14.854;2022-12-18T02:42:42;-4.30;99.90
37378;DHT22;23248;48.120;14.854;2022-12-18T02:45:08;-4.20;99.90
37378;DHT22;23248;48.120;14.854;2022-12-18T02:47:36;-4.20;99.90
37378;DHT22;23248;48.120;14.854;2022-12-18T02:52:56;-4.20;99.90
37378;DHT22;23248;48.120;14.854;2022-12-18T02:57:56;-4.10;99.90
37378;DHT22;23248;48.120;14.854;2022-12-18T03:00:24;-4.20;99.90
37378;DHT22;23248;48.120;14.854;2022-12-18T03:03:01;-4.10;99.90
37378;DHT22;23248;48.120;14.854;2022-12-18T03:05:32;-4.20;99.90
37378;DHT22;23248;48.120;14.854;2022-12-18T03:10:27;-4.20;99.90
37378;DHT22;23248;48.120;14.854;2022-12-18T03:13:02;-4.20;99.90
37378;DHT22;23248;48.120;14.854;2022-12-18T03:15:30;-4.20;99.90
37378;DHT22;23248;48.120;14.854;2022-12-18T03:18:04;-4.20;99.90
37378;DHT22;23248;48.120;14.854;2022-12-18T03:20:32;-4.20;99.90
37378;DHT22;23248;48.120;14.854;2022-12-18T03:23:00;-4.20;99.90
37378;DHT22;23248;48.120;14.854;2022-12-18T03:25:27;-4.20;99.90
37378;DHT22;23248;48.120;14.854;2022-12-18T03:27:54;-4.10;99.90
37378;DHT22;23248;48.120;14.854;2022-12-18T03:30:21;-4.00;99.90
37378;DHT22;23248;48.120;14.854;2022-12-18T03:35:13;-4.00;99.90
37378;DHT22;23248;48.120;14.854;2022-12-18T03:37:46;-4.00;99.90
37378;DHT22;23248;48.120;14.854;2022-12-18T03:40:11;-4.00;99.90
37378;DHT22;23248;48.120;14.854;2022-12-18T03:42:45;-4.00;99.90
37378;DHT22;23248;48.120;14.854;2022-12-18T03:45:13;-3.90;99.90
37378;DHT22;23248;48.120;14.854;2022-12-18T03:47:49;-4.00;99.90
37378;DHT22;23248;48.120;14.854;2022-12-18T03:50:22;-4.00;99.90
37378;DHT22;23248;48.120;14.854;2022-12-18T03:55:25;-4.00;99.90
37378;DHT22;23248;48.120;14.854;2022-12-18T03:57:53;-4.00;99.90
37378;DHT22;23248;48.120;14.854;2022-12-18T04:00:19;-4.00;99.90
37378;DHT22;23248;48.120;14.854;2022-12-18T04:02:55;-3.90;99.90
37378;DHT22;23248;48.120;14.854;2022-12-18T04:05:22;-3.90;99.90
37378;DHT22;23248;48.120;14.854;2022-12-18T04:07:48;-3.90;99.90
37378;DHT22;23248;48.120;14.854;2022-12-18T04:10:15;-3.80;99.90
37378;DHT22;23248;48.120;14.854;2022-12-18T04:12:41;-3.90;99.90
37378;DHT22;23248;48.120;14.854;2022-12-18T04:15:07;-3.80;99.90
37378;DHT22;23248;48.120;14.854;2022-12-18T04:17:33;-3.70;99.90
37378;DHT22;23248;48.120;14.854;2022-12-18T04:19:58;-3.70;99.90
37378;DHT22;23248;48.120;14.854;2022-12-18T04:22:24;-3.70;99.90
37378;DHT22;23248;48.120;14.854;2022-12-18T04:24:49;-3.70;99.90
37378;DHT22;23248;48.120;14.854;2022-12-18T04:27:15;-3.80;99.90
37378;DHT22;23248;48.120;14.854;2022-12-18T04:29:41;-3.70;99.90
37378;DHT22;23248;48.120;14.854;2022-12-18T04:32:06;-3.80;99.90
37378;DHT22;23248;48.120;14.854;2022-12-18T04:34:32;-3.80;99.90
37378;DHT22;23248;48.120;14.854;2022-12-18T04:36:58;-3.90;99.90
37378;DHT22;23248;48.120;14.854;2022-12-18T04:39:23;-3.90;99.90
37378;DHT22;23248;48.120;14.854;2022-12-18T04:41:49;-3.90;99.90
37378;DHT22;23248;48.120;14.854;2022-12-18T04:44:14;-3.90;99.90
37378;DHT22;23248;48.120;14.854;2022-12-18T04:46:40;-3.90;99.90
37378;DHT22;23248;48.120;14.854;2022-12-18T04:49:06;-3.90;99.90
37378;DHT22;23248;48.120;14.854;2022-12-18T04:51:31;-4.10;99.90
37378;DHT22;23248;48.120;14.854;2022-12-18T04:53:57;-4.10;99.90
37378;DHT22;23248;48.120;14.854;2022-12-18T04:56:23;-4.10;99.90
37378;DHT22;23248;48.120;14.854;2022-12-18T04:58:49;-4.20;99.90
37378;DHT22;23248;48.120;14.854;2022-12-18T05:01:15;-4.20;99.90
37378;DHT22;23248;48.120;14.854;2022-12-18T05:03:41;-4.10;99.90
37378;DHT22;23248;48.120;14.854;2022-12-18T05:06:06;-4.10;99.90
37378;DHT22;23248;48.120;14.854;2022-12-18T05:08:32;-4.10;99.90
37378;DHT22;23248;48.120;14.854;2022-12-18T05:10:59;-4.20;99.90
37378;DHT22;23248;48.120;14.854;2022-12-18T05:13:25;-4.20;99.90
37378;DHT22;23248;48.120;14.854;2022-12-18T05:15:51;-4.30;99.90
37378;DHT22;23248;48.120;14.854;2022-12-18T05:18:17;-4.30;99.90
37378;DHT22;23248;48.120;14.854;2022-12-18T05:20:43;-4.30;99.90
37378;DHT22;23248;48.120;14.854;2022-12-18T05:23:08;-4.40;99.90
37378;DHT22;23248;48.120;14.854;2022-12-18T05:25:34;-4.40;99.90
37378;DHT22;23248;48.120;14.854;2022-12-18T05:27:59;-4.50;99.90
37378;DHT22;23248;48.120;14.854;2022-12-18T05:30:25;-4.60;99.90
37378;DHT22;23248;48.120;14.854;2022-12-18T05:32:51;-4.60;99.90
37378;DHT22;23248;48.120;14.854;2022-12-18T05:35:16;-4.70;99.90
37378;DHT22;23248;48.120;14.854;2022-12-18T05:37:42;-4.80;99.90
37378;DHT22;23248;48.120;14.854;2022-12-18T05:40:07;-4.90;99.90
37378;DHT22;23248;48.120;14.854;2022-12-18T05:42:33;-4.90;99.90
37378;DHT22;23248;48.120;14.854;2022-12-18T05:44:59;-5.00;99.90
37378;DHT22;23248;48.120;14.854;2022-12-18T05:47:24;-5.20;99.90
37378;DHT22;23248;48.120;14.854;2022-12-18T05:49:50;-5.20;99.90
37378;DHT22;23248;48.120;14.854;2022-12-18T05:52:15;-5.20;99.90
37378;DHT22;23248;48.120;14.854;2022-12-18T05:54:41;-5.10;99.90
37378;DHT22;23248;48.120;14.854;2022-12-18T05:57:06;-5.10;99.90
37378;DHT22;23248;48.120;14.854;2022-12-18T05:59:32;-5.10;99.90
37378;DHT22;23248;48.120;14.854;2022-12-18T06:01:58;-5.00;99.90
37378;DHT22;23248;48.120;14.854;2022-12-18T06:04:23;-5.00;99.90
37378;DHT22;23248;48.120;14.854;2022-12-18T06:06:49;-5.00;99.90
37378;DHT22;23248;48.120;14.854;2022-12-18T06:09:14;-4.90;99.90
37378;DHT22;23248;48.120;14.854;2022-12-18T06:11:40;-4.90;99.90
37378;DHT22;23248;48.120;14.854;2022-12-18T06:14:05;-4.90;99.90
37378;DHT22;23248;48.120;14.854;2022-12-18T06:16:31;-4.90;99.90
37378;DHT22;23248;48.120;14.854;2022-12-18T06:18:57;-4.80;99.90
37378;DHT22;23248;48.120;14.854;2022-12-18T06:21:23;-4.80;99.90
37378;DHT22;23248;48.120;14.854;2022-12-18T06:23:49;-4.70;99.90
37378;DHT22;23248;48.120;14.854;2022-12-18T06:26:14;-4.70;99.90
37378;DHT22;23248;48.120;14.854;2022-12-18T06:28:40;-4.70;99.90
37378;DHT22;23248;48.120;14.854;2022-12-18T06:31:06;-4.60;99.90
37378;DHT22;23248;48.120;14.854;2022-12-18T06:33:31;-4.70;99.90
37378;DHT22;23248;48.120;14.854;2022-12-18T06:36:04;-4.80;99.90
37378;DHT22;23248;48.120;14.854;2022-12-18T06:38:32;-4.80;99.90
37378;DHT22;23248;48.120;14.854;2022-12-18T06:40:57;-4.90;99.90
37378;DHT22;23248;48.120;14.854;2022-12-18T06:43:23;-5.00;99.90
37378;DHT22;23248;48.120;14.854;2022-12-18T06:45:49;-4.90;99.90
37378;DHT22;23248;48.120;14.854;2022-12-18T06:48:20;-4.90;99.90
37378;DHT22;23248;48.120;14.854;2022-12-18T06:50:46;-4.90;99.90
37378;DHT22;23248;48.120;14.854;2022-12-18T06:53:12;-4.90;99.90
37378;DHT22;23248;48.120;14.854;2022-12-18T06:55:38;-4.90;99.90
37378;DHT22;23248;48.120;14.854;2022-12-18T06:58:03;-4.90;99.90
37378;DHT22;23248;48.120;14.854;2022-12-18T07:00:29;-4.90;99.90
37378;DHT22;23248;48.120;14.854;2022-12-18T07:02:54;-4.80;99.90
37378;DHT22;23248;48.120;14.854;2022-12-18T07:05:20;-4.70;99.90
37378;DHT22;23248;48.120;14.854;2022-12-18T07:07:45;-4.80;99.90
37378;DHT22;23248;48.120;14.854;2022-12-18T07:10:11;-4.80;99.90
37378;DHT22;23248;48.120;14.854;2022-12-18T07:12:37;-4.90;99.90
37378;DHT22;23248;48.120;14.854;2022-12-18T07:15:02;-4.90;99.90
37378;DHT22;23248;48.120;14.854;2022-12-18T07:17:28;-4.90;99.90
37378;DHT22;23248;48.120;14.854;2022-12-18T07:19:54;-4.90;99.90
37378;DHT22;23248;48.120;14.854;2022-12-18T07:22:20;-5.00;99.90
37378;DHT22;23248;48.120;14.854;2022-12-18T07:24:46;-5.00;99.90
37378;DHT22;23248;48.120;14.854;2022-12-18T07:27:11;-4.90;99.90
37378;DHT22;23248;48.120;14.854;2022-12-18T07:29:37;-4.80;99.90
37378;DHT22;23248;48.120;14.854;2022-12-18T07:32:02;-4.80;99.90
37378;DHT22;23248;48.120;14.854;2022-12-18T07:34:28;-4.80;99.90
37378;DHT22;23248;48.120;14.854;2022-12-18T07:36:53;-4.70;99.90
37378;DHT22;23248;48.120;14.854;2022-12-18T07:39:19;-4.70;99.90
37378;DHT22;23248;48.120;14.854;2022-12-18T07:41:45;-4.70;99.90
37378;DHT22;23248;48.120;14.854;2022-12-18T07:44:33;-4.70;99.90
37378;DHT22;23248;48.120;14.854;2022-12-18T07:46:58;-4.70;99.90
37378;DHT22;23248;48.120;14.854;2022-12-18T07:49:24;-4.60;99.90
37378;DHT22;23248;48.120;14.854;2022-12-18T07:51:49;-4.60;99.90
37378;DHT22;23248;48.120;14.854;2022-12-18T07:54:15;-4.50;99.90
37378;DHT22;23248;48.120;14.854;2022-12-18T07:56:41;-4.50;99.90
37378;DHT22;23248;48.120;14.854;2022-12-18T07:59:07;-4.50;99.90
37378;DHT22;23248;48.120;14.854;2022-12-18T08:01:33;-4.40;99.90
37378;DHT22;23248;48.120;14.854;2022-12-18T08:03:58;-4.40;99.90
37378;DHT22;23248;48.120;14.854;2022-12-18T08:06:24;-4.40;99.90
37378;DHT22;23248;48.120;14.854;2022-12-18T08:08:50;-4.40;99.90
37378;DHT22;23248;48.120;14.854;2022-12-18T08:11:16;-4.30;99.90
37378;DHT22;23248;48.120;14.854;2022-12-18T08:13:42;-4.30;99.90
37378;DHT22;23248;48.120;14.854;2022-12-18T08:16:07;-4.30;99.90
37378;DHT22;23248;48.120;14.854;2022-12-18T08:18:33;-4.20;99.90
37378;DHT22;23248;48.120;14.854;2022-12-18T08:21:13;-4.30;99.90
37378;DHT22;23248;48.120;14.854;2022-12-18T08:23:40;-4.30;99.90
37378;DHT22;23248;48.120;14.854;2022-12-18T08:26:06;-4.20;99.90
37378;DHT22;23248;48.120;14.854;2022-12-18T08:28:32;-4.20;99.90
37378;DHT22;23248;48.120;14.854;2022-12-18T08:30:57;-4.10;99.90
37378;DHT22;23248;48.120;14.854;2022-12-18T08:33:23;-4.00;99.90
37378;DHT22;23248;48.120;14.854;2022-12-18T08:35:48;-3.90;99.90
37378;DHT22;23248;48.120;14.854;2022-12-18T08:38:14;-3.90;99.90
37378;DHT22;23248;48.120;14.854;2022-12-18T08:40:39;-3.90;99.90
37378;DHT22;23248;48.120;14.854;2022-12-18T08:43:05;-3.90;99.90
37378;DHT22;23248;48.120;14.854;2022-12-18T08:45:49;-3.80;99.90
37378;DHT22;23248;48.120;14.854;2022-12-18T08:48:15;-3.90;99.90
37378;DHT22;23248;48.120;14.854;2022-12-18T08:50:40;-3.80;99.90
37378;DHT22;23248;48.120;14.854;2022-12-18T08:53:06;-3.80;99.90
37378;DHT22;23248;48.120;14.854;2022-12-18T08:55:31;-3.80;99.90
37378;DHT22;23248;48.120;14.854;2022-12-18T08:57:57;-3.80;99.90
37378;DHT22;23248;48.120;14.854;2022-12-18T09:00:22;-3.70;99.90
37378;DHT22;23248;48.120;14.854;2022-12-18T09:02:48;-3.60;99.90
37378;DHT22;23248;48.120;14.854;2022-12-18T09:05:14;-3.50;99.90
37378;DHT22;23248;48.120;14.854;2022-12-18T09:07:39;-3.40;99.90
37378;DHT22;23248;48.120;14.854;2022-12-18T09:10:05;-3.30;99.90
37378;DHT22;23248;48.120;14.854;2022-12-18T09:12:31;-3.30;99.90
37378;DHT22;23248;48.120;14.854;2022-12-18T09:14:57;-3.30;99.90
37378;DHT22;23248;48.120;14.854;2022-12-18T09:17:22;-3.30;99.90
37378;DHT22;23248;48.120;14.854;2022-12-18T09:19:48;-3.20;99.90
37378;DHT22;23248;48.120;14.854;2022-12-18T09:22:13;-3.20;99.90
37378;DHT22;23248;48.120;14.854;2022-12-18T09:24:39;-3.10;99.90
37378;DHT22;23248;48.120;14.854;2022-12-18T09:27:04;-3.00;99.90
37378;DHT22;23248;48.120;14.854;2022-12-18T09:29:30;-3.00;99.90
37378;DHT22;23248;48.120;14.854;2022-12-18T09:31:56;-3.00;99.90
37378;DHT22;23248;48.120;14.854;2022-12-18T09:34:21;-3.10;99.90
37378;DHT22;23248;48.120;14.854;2022-12-18T09:36:47;-3.10;99.90
37378;DHT22;23248;48.120;14.854;2022-12-18T09:39:13;-3.20;99.90
37378;DHT22;23248;48.120;14.854;2022-12-18T09:41:46;-3.20;99.90
37378;DHT22;23248;48.120;14.854;2022-12-18T09:46:43;-3.20;99.90
37378;DHT22;23248;48.120;14.854;2022-12-18T09:49:11;-3.00;99.90
37378;DHT22;23248;48.120;14.854;2022-12-18T09:51:43;-3.00;99.90
37378;DHT22;23248;48.120;14.854;2022-12-18T09:54:12;-2.90;99.90
37378;DHT22;23248;48.120;14.854;2022-12-18T09:56:40;-2.80;99.90
37378;DHT22;23248;48.120;14.854;2022-12-18T09:59:06;-2.60;99.90
37378;DHT22;23248;48.120;14.854;2022-12-18T10:01:34;-2.50;99.90
37378;DHT22;23248;48.120;14.854;2022-12-18T10:04:00;-2.30;99.90
37378;DHT22;23248;48.120;14.854;2022-12-18T10:06:31;-2.20;99.90
37378;DHT22;23248;48.120;14.854;2022-12-18T10:14:27;-1.80;99.90
37378;DHT22;23248;48.120;14.854;2022-12-18T10:17:05;-1.50;99.90
37378;DHT22;23248;48.120;14.854;2022-12-18T10:19:38;-1.30;99.90
37378;DHT22;23248;48.120;14.854;2022-12-18T10:22:26;-1.20;99.90
37378;DHT22;23248;48.120;14.854;2022-12-18T10:25:06;-1.20;99.90
37378;DHT22;23248;48.120;14.854;2022-12-18T10:27:39;-1.10;99.90
37378;DHT22;23248;48.120;14.854;2022-12-18T10:30:12;-1.20;99.90
37378;DHT22;23248;48.120;14.854;2022-12-18T10:32:38;-1.20;99.90
37378;DHT22;23248;48.120;14.854;2022-12-18T10:35:04;-1.00;99.90
37378;DHT22;23248;48.120;14.854;2022-12-18T10:37:30;-1.00;99.90
37378;DHT22;23248;48.120;14.854;2022-12-18T10:42:33;-0.60;99.90
37378;DHT22;23248;48.120;14.854;2022-12-18T10:45:13;-0.60;99.90
37378;DHT22;23248;48.120;14.854;2022-12-18T10:47:46;-0.60;99.90
37378;DHT22;23248;48.120;14.854;2022-12-18T10:50:20;-0.50;99.90
37378;DHT22;23248;48.120;14.854;2022-12-18T10:52:56;-0.40;99.90
37378;DHT22;23248;48.120;14.854;2022-12-18T10:55:22;-0.70;99.90
37378;DHT22;23248;48.120;14.854;2022-12-18T10:57:48;-0.70;99.90
37378;DHT22;23248;48.120;14.854;2022-12-18T11:02:45;-0.80;99.90
37378;DHT22;23248;48.120;14.854;2022-12-18T11:07:51;-0.80;99.90
37378;DHT22;23248;48.120;14.854;2022-12-18T11:10:19;-0.80;99.90
37378;DHT22;23248;48.120;14.854;2022-12-18T11:12:45;-0.70;99.90
37378;DHT22;23248;48.120;14.854;2022-12-18T11:15:29;-0.60;99.90
37378;DHT22;23248;48.120;14.854;2022-12-18T11:17:55;-0.60;99.90
37378;DHT22;23248;48.120;14.854;2022-12-18T11:22:56;-0.60;99.90
37378;DHT22;23248;48.120;14.854;2022-12-18T11:25:22;-0.70;99.90
37378;DHT22;23248;48.120;14.854;2022-12-18T11:27:52;-0.70;99.90
37378;DHT22;23248;48.120;14.854;2022-12-18T11:32:46;-0.70;99.90
37378;DHT22;23248;48.120;14.854;2022-12-18T11:35:16;-0.60;99.90
37378;DHT22;23248;48.120;14.854;2022-12-18T11:37:46;-0.60;99.90
37378;DHT22;23248;48.120;14.854;2022-12-18T11:40:17;-0.80;99.90
37378;DHT22;23248;48.120;14.854;2022-12-18T11:42:51;-0.80;99.90
37378;DHT22;23248;48.120;14.854;2022-12-18T11:53:02;-1.30;99.90
37378;DHT22;23248;48.120;14.854;2022-12-18T11:55:30;-1.50;99.90
37378;DHT22;23248;48.120;14.854;2022-12-18T12:00:24;-1.70;99.90
37378;DHT22;23248;48.120;14.854;2022-12-18T12:15:16;-2.00;99.90
37378;DHT22;23248;48.120;14.854;2022-12-18T12:20:20;-2.00;99.90
37378;DHT22;23248;48.120;14.854;2022-12-18T12:27:52;-2.10;99.90
37378;DHT22;23248;48.120;14.854;2022-12-18T12:40:29;-2.20;99.90
37378;DHT22;23248;48.120;14.854;2022-12-18T12:43:00;-2.20;99.90
37378;DHT22;23248;48.120;14.854;2022-12-18T12:46:12;-2.20;99.90
37378;DHT22;23248;48.120;14.854;2022-12-18T12:50:56;-2.20;99.90
37378;DHT22;23248;48.120;14.854;2022-12-18T12:53:26;-2.20;99.90
37378;DHT22;23248;48.120;14.854;2022-12-18T12:55:54;-2.20;99.90
37378;DHT22;23248;48.120;14.854;2022-12-18T13:08:53;-2.40;99.90
37378;DHT22;23248;48.120;14.854;2022-12-18T13:14:19;-2.40;99.90
37378;DHT22;23248;48.120;14.854;2022-12-18T13:16:45;-2.30;99.90
37378;DHT22;23248;48.120;14.854;2022-12-18T13:19:19;-2.40;99.90
37378;DHT22;23248;48.120;14.854;2022-12-18T13:21:51;-2.40;99.90
37378;DHT22;23248;48.120;14.854;2022-12-18T13:24:28;-2.40;99.90
37378;DHT22;23248;48.120;14.854;2022-12-18T13:26:55;-2.30;99.90
37378;DHT22;23248;48.120;14.854;2022-12-18T13:32:10;-2.30;99.90
37378;DHT22;23248;48.120;14.854;2022-12-18T13:34:43;-2.30;99.90
37378;DHT22;23248;48.120;14.854;2022-12-18T13:39:54;-2.30;99.90
37378;DHT22;23248;48.120;14.854;2022-12-18T13:45:36;-2.30;99.90
37378;DHT22;23248;48.120;14.854;2022-12-18T13:48:03;-2.40;99.90
37378;DHT22;23248;48.120;14.854;2022-12-18T13:50:28;-2.40;99.90
37378;DHT22;23248;48.120;14.854;2022-12-18T13:52:54;-2.40;99.90
37378;DHT22;23248;48.120;14.854;2022-12-18T13:55:20;-2.40;99.90
37378;DHT22;23248;48.120;14.854;2022-12-18T13:57:46;-2.40;99.90
37378;DHT22;23248;48.120;14.854;2022-12-18T14:00:27;-2.50;99.90
37378;DHT22;23248;48.120;14.854;2022-12-18T14:02:54;-2.50;99.90
37378;DHT22;23248;48.120;14.854;2022-12-18T14:05:23;-2.50;99.90
37378;DHT22;23248;48.120;14.854;2022-12-18T14:07:48;-2.40;99.90
37378;DHT22;23248;48.120;14.854;2022-12-18T14:10:15;-2.40;99.90
37378;DHT22;23248;48.120;14.854;2022-12-18T14:12:44;-2.50;99.90
37378;DHT22;23248;48.120;14.854;2022-12-18T14:17:50;-2.50;99.90
37378;DHT22;23248;48.120;14.854;2022-12-18T14:20:17;-2.50;99.90
37378;DHT22;23248;48.120;14.854;2022-12-18T14:22:43;-2.60;99.90
37378;DHT22;23248;48.120;14.854;2022-12-18T14:27:46;-2.60;99.90
37378;DHT22;23248;48.120;14.854;2022-12-18T14:33:00;-2.70;99.90
37378;DHT22;23248;48.120;14.854;2022-12-18T14:35:25;-2.70;99.90
37378;DHT22;23248;48.120;14.854;2022-12-18T14:37:51;-2.70;99.90
37378;DHT22;23248;48.120;14.854;2022-12-18T14:40:16;-2.70;99.90
37378;DHT22;23248;48.120;14.854;2022-12-18T14:42:42;-2.70;99.90
37378;DHT22;23248;48.120;14.854;2022-12-18T14:47:52;-2.80;99.90
37378;DHT22;23248;48.120;14.854;2022-12-18T14:50:18;-2.80;99.90
37378;DHT22;23248;48.120;14.854;2022-12-18T14:52:43;-2.80;99.90
37378;DHT22;23248;48.120;14.854;2022-12-18T14:55:18;-2.90;99.90
37378;DHT22;23248;48.120;14.854;2022-12-18T14:57:44;-2.90;99.90
37378;DHT22;23248;48.120;14.854;2022-12-18T15:00:20;-3.00;99.90
37378;DHT22;23248;48.120;14.854;2022-12-18T15:02:47;-3.00;99.90
37378;DHT22;23248;48.120;14.854;2022-12-18T15:05:18;-3.00;99.90
37378;DHT22;23248;48.120;14.854;2022-12-18T15:07:49;-3.00;99.90
37378;DHT22;23248;48.120;14.854;2022-12-18T15:20:53;-3.00;99.90
37378;DHT22;23248;48.120;14.854;2022-12-18T15:25:56;-2.90;99.90
37378;DHT22;23248;48.120;14.854;2022-12-18T15:28:23;-3.00;99.90
37378;DHT22;23248;48.120;14.854;2022-12-18T15:31:32;-3.00;99.90
37378;DHT22;23248;48.120;14.854;2022-12-18T15:36:16;-3.00;99.90
37378;DHT22;23248;48.120;14.854;2022-12-18T15:38:52;-3.00;99.90
37378;DHT22;23248;48.120;14.854;2022-12-18T15:41:18;-3.00;99.90
37378;DHT22;23248;48.120;14.854;2022-12-18T15:43:46;-3.10;99.90
37378;DHT22;23248;48.120;14.854;2022-12-18T15:46:13;-3.00;99.90
37378;DHT22;23248;48.120;14.854;2022-12-18T15:48:40;-3.10;99.90
37378;DHT22;23248;48.120;14.854;2022-12-18T15:51:17;-3.10;99.90
37378;DHT22;23248;48.120;14.854;2022-12-18T15:53:43;-3.10;99.90
37378;DHT22;23248;48.120;14.854;2022-12-18T15:56:10;-3.10;99.90
37378;DHT22;23248;48.120;14.854;2022-12-18T15:58:54;-3.10;99.90
37378;DHT22;23248;48.120;14.854;2022-12-18T16:01:26;-3.10;99.90
37378;DHT22;23248;48.120;14.854;2022-12-18T16:03:52;-3.10;99.90
37378;DHT22;23248;48.120;14.854;2022-12-18T16:06:19;-3.10;99.90
37378;DHT22;23248;48.120;14.854;2022-12-18T16:08:53;-3.10;99.90
37378;DHT22;23248;48.120;14.854;2022-12-18T16:14:16;-3.20;99.90
37378;DHT22;23248;48.120;14.854;2022-12-18T16:16:43;-3.20;99.90
37378;DHT22;23248;48.120;14.854;2022-12-18T16:19:08;-3.20;99.90
37378;DHT22;23248;48.120;14.854;2022-12-18T16:21:34;-3.20;99.90
37378;DHT22;23248;48.120;14.854;2022-12-18T16:24:00;-3.20;99.90
37378;DHT22;23248;48.120;14.854;2022-12-18T16:26:32;-3.20;99.90
37378;DHT22;23248;48.120;14.854;2022-12-18T16:28:58;-3.20;99.90
37378;DHT22;23248;48.120;14.854;2022-12-18T16:31:23;-3.20;99.90
37378;DHT22;23248;48.120;14.854;2022-12-18T16:33:49;-3.20;99.90
37378;DHT22;23248;48.120;14.854;2022-12-18T16:36:15;-3.20;99.90
37378;DHT22;23248;48.120;14.854;2022-12-18T16:38:41;-3.20;99.90
37378;DHT22;23248;48.120;14.854;2022-12-18T16:41:18;-3.20;99.90
37378;DHT22;23248;48.120;14.854;2022-12-18T16:43:56;-3.20;99.90
37378;DHT22;23248;48.120;14.854;2022-12-18T16:46:22;-3.20;99.90
37378;DHT22;23248;48.120;14.854;2022-12-18T16:48:48;-3.20;99.90
37378;DHT22;23248;48.120;14.854;2022-12-18T16:51:14;-3.20;99.90
37378;DHT22;23248;48.120;14.854;2022-12-18T16:53:40;-3.20;99.90
37378;DHT22;23248;48.120;14.854;2022-12-18T16:56:06;-3.20;99.90
37378;DHT22;23248;48.120;14.854;2022-12-18T16:58:31;-3.20;99.90
37378;DHT22;23248;48.120;14.854;2022-12-18T17:00:57;-3.20;99.90
37378;DHT22;23248;48.120;14.854;2022-12-18T17:03:24;-3.20;99.90
37378;DHT22;23248;48.120;14.854;2022-12-18T17:05:50;-3.20;99.90
37378;DHT22;23248;48.120;14.854;2022-12-18T17:08:16;-3.20;99.90
37378;DHT22;23248;48.120;14.854;2022-12-18T17:10:43;-3.20;99.90
37378;DHT22;23248;48.120;14.854;2022-12-18T17:13:09;-3.20;99.90
37378;DHT22;23248;48.120;14.854;2022-12-18T17:15:35;-3.20;99.90
37378;DHT22;23248;48.120;14.854;2022-12-18T17:18:02;-3.20;99.90
37378;DHT22;23248;48.120;14.854;2022-12-18T17:20:31;-3.20;99.90
37378;DHT22;23248;48.120;14.854;2022-12-18T17:22:57;-3.10;99.90
37378;DHT22;23248;48.120;14.854;2022-12-18T17:25:26;-3.10;99.90
37378;DHT22;23248;48.120;14.854;2022-12-18T17:27:52;-3.10;99.90
37378;DHT22;23248;48.120;14.854;2022-12-18T17:30:18;-3.10;99.90
37378;DHT22;23248;48.120;14.854;2022-12-18T17:32:44;-3.10;99.90
37378;DHT22;23248;48.120;14.854;2022-12-18T17:35:10;-3.10;99.90
37378;DHT22;23248;48.120;14.854;2022-12-18T17:37:35;-3.10;99.90